Time;durP1;ratioP1;P1;durP2;ratioP2;P2;SDS_P1;SDS_P2;PMS_P1;PMS_P2;Temp;Humidity;BMP_temperature;BMP_pressure;BME280_temperature;BME280_humidity;BME280_pressure;Samples;Min_cycle;Max_cycle;Signal;HPM_P1;HPM_P2
2023/01/22 00:03:53;;;;;;;8.55;7.15;;;;;;;18.43;27.74;103243.47;16115196;19;130007;-52
2023/01/22 00:09:15;;;;;;;9.30;6.88;;;;;;;18.39;27.52;103242.97;16114309;19;129583;-53
2023/01/22 00:14:37;;;;;;;9.63;7.13;;;;;;;18.35;27.79;103240.75;16114944;19;131069;-53
2023/01/22 00:19:58;;;;;;;10.57;6.88;;;;;;;18.30;27.77;103239.38;16112792;19;129645;-55
2023/01/22 00:25:20;;;;;;;8.65;6.50;;;;;;;18.25;27.65;103235.44;16112099;19;129263;-53
2023/01/22 00:30:42;;;;;;;7.90;6.47;;;;;;;18.22;27.77;103235.81;16124272;19;129650;-53
2023/01/22 00:36:09;;;;;;;8.27;6.20;;;;;;;18.20;27.92;103226.88;16130466;19;129494;-54
2023/01/22 00:41:31;;;;;;;7.30;5.93;;;;;;;18.16;28.05;103226.34;16130592;19;130599;-56
2023/01/22 00:46:53;;;;;;;8.50;6.03;;;;;;;18.13;27.84;103221.22;16129850;19;129448;-54
2023/01/22 00:52:15;;;;;;;9.10;6.55;;;;;;;18.10;27.87;103225.19;16128737;19;129997;-54
2023/01/22 00:57:36;;;;;;;8.60;6.43;;;;;;;18.06;27.65;103237.72;16128338;19;130327;-54
2023/01/22 01:08:41;;;;;;;6.82;5.82;;;;;;;18.02;28.08;103239.13;16128192;19;129144;-56
2023/01/22 01:14:03;;;;;;;8.10;6.53;;;;;;;17.98;27.64;103227.56;16128945;19;129178;-56
2023/01/22 01:19:25;;;;;;;7.47;6.35;;;;;;;17.94;27.72;103223.44;16129539;19;130252;-53
2023/01/22 01:24:47;;;;;;;8.38;5.95;;;;;;;17.91;28.10;103228.47;16128970;19;131393;-53
2023/01/22 01:30:09;;;;;;;8.00;6.68;;;;;;;17.87;27.88;103207.72;16128195;19;129082;-54
2023/01/22 01:35:31;;;;;;;6.97;5.47;;;;;;;17.85;27.96;103205.16;16128761;19;135836;-55
2023/01/22 01:40:53;;;;;;;8.00;6.47;;;;;;;17.82;27.82;103192.56;16123940;19;129583;-55
2023/01/22 01:46:21;;;;;;;7.72;5.90;;;;;;;17.81;28.03;103184.41;16123756;19;131150;-55
2023/01/22 01:51:44;;;;;;;7.32;5.70;;;;;;;17.78;28.03;103188.44;16126972;19;130390;-53
2023/01/22 01:57:11;;;;;;;6.72;5.70;;;;;;;17.75;27.89;103174.94;16123976;19;133411;-54
2023/01/22 02:02:33;;;;;;;8.73;6.20;;;;;;;17.72;28.01;103186.41;16126819;19;131122;-54
2023/01/22 02:07:55;;;;;;;7.80;6.40;;;;;;;17.69;27.82;103175.69;16123610;19;129300;-53
2023/01/22 02:13:24;;;;;;;8.48;6.57;;;;;;;17.69;27.57;103170.16;16122916;19;129350;-52
2023/01/22 02:18:46;;;;;;;9.48;7.22;;;;;;;17.63;27.86;103159.81;16125110;19;131591;-55
2023/01/22 02:24:13;;;;;;;8.15;6.55;;;;;;;17.57;27.83;103160.56;16120006;19;129418;-51
2023/01/22 02:29:35;;;;;;;7.70;6.63;;;;;;;17.52;27.67;103164.72;16123216;19;129470;-55
2023/01/22 02:34:57;;;;;;;7.28;6.13;;;;;;;17.49;27.45;103159.53;16122795;19;130017;-55
2023/01/22 02:40:19;;;;;;;6.88;5.82;;;;;;;17.49;27.84;103162.31;16122013;19;129020;-56
2023/01/22 02:45:41;;;;;;;7.32;5.88;;;;;;;17.48;27.65;103163.34;16124402;19;129596;-54
2023/01/22 02:51:04;;;;;;;6.68;5.32;;;;;;;17.46;27.92;103151.63;16123335;19;129839;-56
2023/01/22 02:56:26;;;;;;;7.03;5.55;;;;;;;17.43;27.97;103143.69;16120712;19;130280;-56
2023/01/22 03:01:47;;;;;;;6.38;4.78;;;;;;;17.42;27.56;103147.50;16121592;19;129883;-53
2023/01/22 03:07:09;;;;;;;6.43;5.15;;;;;;;17.42;27.91;103132.78;16118919;19;129733;-53
2023/01/22 03:23:54;;;;;;;5.00;4.43;;;;;;;17.36;27.62;103117.78;16117608;19;129272;-55
2023/01/22 03:29:15;;;;;;;6.45;4.38;;;;;;;17.34;27.83;103086.69;16114307;19;129614;-51
2023/01/22 03:34:37;;;;;;;5.50;4.38;;;;;;;17.34;27.75;103100.53;16118715;19;130085;-53
2023/01/22 03:39:59;;;;;;;4.85;3.80;;;;;;;17.32;27.64;103097.06;16117222;19;131761;-55
2023/01/22 03:45:21;;;;;;;4.95;3.85;;;;;;;17.32;28.04;103086.00;16117441;19;129991;-53
2023/01/22 03:50:42;;;;;;;4.65;3.53;;;;;;;17.30;27.94;103097.25;16120088;19;129720;-53
2023/01/22 03:56:07;;;;;;;3.85;3.42;;;;;;;17.30;28.03;103113.00;16118703;19;129590;-53
2023/01/22 04:01:29;;;;;;;3.80;3.07;;;;;;;17.30;28.30;103115.75;16118332;19;129631;-56
2023/01/22 04:06:51;;;;;;;3.10;2.80;;;;;;;17.30;27.95;103118.53;16128100;19;131363;-54
2023/01/22 04:12:13;;;;;;;2.72;2.40;;;;;;;17.29;28.37;103114.91;16130979;19;129245;-55
2023/01/22 04:17:35;;;;;;;2.85;2.22;;;;;;;17.29;28.25;103108.50;16131981;19;129444;-54
2023/01/22 04:22:56;;;;;;;3.10;2.42;;;;;;;17.26;28.42;103109.75;16128234;19;129707;-54
2023/01/22 04:28:19;;;;;;;2.90;2.58;;;;;;;17.24;28.55;103096.06;16130656;19;130915;-52
2023/01/22 04:33:41;;;;;;;2.95;2.55;;;;;;;17.25;28.12;103108.03;16129119;19;130251;-54
2023/01/22 04:39:03;;;;;;;2.78;2.40;;;;;;;17.22;28.37;103109.25;16128765;19;130040;-54
2023/01/22 04:44:24;;;;;;;3.75;2.60;;;;;;;17.21;28.40;103098.34;16129916;19;129525;-53
2023/01/22 04:49:46;;;;;;;3.00;2.50;;;;;;;17.18;28.50;103107.88;16130702;19;134901;-54
2023/01/22 04:55:08;;;;;;;2.85;2.47;;;;;;;17.16;28.22;103098.06;16128977;19;130831;-53
2023/01/22 05:00:30;;;;;;;2.35;2.15;;;;;;;17.14;28.26;103094.63;16127664;19;130374;-52
2023/01/22 05:05:52;;;;;;;3.17;2.72;;;;;;;17.13;28.49;103102.03;16128924;19;130335;-51
2023/01/22 05:11:14;;;;;;;2.67;2.47;;;;;;;17.11;28.27;103104.13;16128419;19;129809;-51
2023/01/22 05:16:35;;;;;;;3.78;2.33;;;;;;;17.08;28.39;103108.13;16128456;19;129800;-55
2023/01/22 05:21:57;;;;;;;4.30;2.25;;;;;;;17.07;28.43;103105.53;16129094;19;129563;-55
2023/01/22 05:27:19;;;;;;;3.55;2.35;;;;;;;17.04;28.41;103105.91;16127188;19;131141;-56
2023/01/22 05:32:41;;;;;;;3.10;2.65;;;;;;;17.02;28.17;103108.84;16126207;19;130738;-52
2023/01/22 05:38:02;;;;;;;2.75;2.45;;;;;;;17.00;28.16;103110.06;16123795;19;129390;-53
2023/01/22 05:43:24;;;;;;;3.00;2.30;;;;;;;16.98;28.18;103114.94;16125543;19;130229;-53
2023/01/22 05:48:46;;;;;;;3.63;2.50;;;;;;;16.96;28.10;103108.72;16124043;19;134452;-53
2023/01/22 05:54:08;;;;;;;2.47;2.03;;;;;;;16.92;28.08;103114.59;16123062;19;131455;-54
2023/01/22 05:59:30;;;;;;;2.83;2.45;;;;;;;16.91;28.21;103118.41;16124247;19;129661;-60
2023/01/22 06:04:52;;;;;;;3.25;2.45;;;;;;;16.86;28.13;103115.31;16125254;19;130093;-58
2023/01/22 06:10:15;;;;;;;2.42;2.10;;;;;;;16.85;28.05;103115.50;16123008;19;129434;-59
2023/01/22 06:15:38;;;;;;;3.25;2.30;;;;;;;16.83;28.05;103120.34;16124854;19;130311;-59
2023/01/22 06:21:01;;;;;;;3.13;2.22;;;;;;;16.81;28.43;103133.50;16122465;19;130216;-57
2023/01/22 06:26:23;;;;;;;2.70;1.98;;;;;;;16.80;28.22;103129.88;16123129;19;129852;-51
2023/01/22 06:31:45;;;;;;;2.00;1.77;;;;;;;16.79;28.28;103130.06;16120868;19;129634;-51
2023/01/22 06:37:07;;;;;;;2.30;1.95;;;;;;;16.79;28.15;103122.63;16119368;19;130803;-52
2023/01/22 06:42:29;;;;;;;1.58;1.42;;;;;;;16.87;28.19;103132.78;16121726;19;129579;-53
2023/01/22 06:47:51;;;;;;;2.05;1.33;;;;;;;17.19;28.05;103131.75;16121757;19;129894;-55
2023/01/22 06:53:13;;;;;;;1.85;1.10;;;;;;;17.82;27.46;103125.22;16118813;19;129913;-52
2023/01/22 06:58:35;;;;;;;1.92;1.33;;;;;;;18.44;26.55;103140.75;16119535;19;130334;-51
2023/01/22 07:03:56;;;;;;;1.65;0.90;;;;;;;18.83;26.49;103137.84;16119399;19;131004;-55
2023/01/22 07:09:18;;;;;;;2.92;0.98;;;;;;;19.04;26.24;103154.53;16113939;19;131353;-56
2023/01/22 07:14:40;;;;;;;1.17;0.90;;;;;;;19.22;26.00;103147.69;16116017;19;129215;-55
2023/01/22 07:20:03;;;;;;;5.05;1.13;;;;;;;19.35;26.38;103150.63;16113177;19;130864;-58
2023/01/22 07:25:26;;;;;;;4.78;1.23;;;;;;;19.36;26.48;103152.34;16118996;19;129774;-50
2023/01/22 07:30:48;;;;;;;2.38;1.40;;;;;;;19.34;26.59;103151.69;16111181;19;130701;-49
2023/01/22 07:36:10;;;;;;;1.50;1.13;;;;;;;19.27;26.66;103153.53;16116220;19;129522;-58
2023/01/22 07:41:32;;;;;;;2.45;1.23;;;;;;;19.15;26.86;103161.47;16131290;19;130488;-47
2023/01/22 07:46:53;;;;;;;1.27;1.08;;;;;;;19.03;26.76;103155.59;16130161;19;129628;-52
2023/01/22 07:52:15;;;;;;;2.75;1.60;;;;;;;18.86;27.11;103154.06;16123629;19;131448;-54
2023/01/22 07:57:37;;;;;;;2.70;1.10;;;;;;;18.84;27.37;103154.28;16133198;19;131516;-61
2023/01/22 08:02:59;;;;;;;1.80;1.15;;;;;;;19.00;27.11;103150.41;16131433;19;130131;-56
2023/01/22 08:08:21;;;;;;;1.23;0.93;;;;;;;19.30;26.77;103160.59;16131698;19;130534;-57
2023/01/22 08:13:42;;;;;;;3.38;1.30;;;;;;;19.65;26.52;103171.84;16130302;19;129827;-56
2023/01/22 08:19:04;;;;;;;2.42;0.98;;;;;;;19.96;26.33;103176.22;16113036;19;130379;-56
2023/01/22 08:24:26;;;;;;;7.47;1.30;;;;;;;20.19;26.67;103180.69;16131315;19;129652;-56
2023/01/22 08:29:51;;;;;;;11.45;1.67;;;;;;;20.20;26.59;103183.25;16131358;19;130581;-50
2023/01/22 08:35:12;;;;;;;6.40;1.13;;;;;;;20.07;26.28;103177.59;16126543;19;130492;-55
2023/01/22 08:40:34;;;;;;;5.03;1.50;;;;;;;19.91;26.31;103185.16;16126311;19;130681;-55
2023/01/22 08:45:58;;;;;;;8.02;1.40;;;;;;;19.74;26.07;103192.91;16129110;19;129483;-55
2023/01/22 08:51:22;;;;;;;3.45;1.48;;;;;;;19.52;26.38;103190.09;16124273;19;130170;-55
2023/01/22 08:56:44;;;;;;;3.90;1.48;;;;;;;19.40;26.34;103194.44;16125912;19;129746;-54
2023/01/22 09:02:11;;;;;;;7.60;1.52;;;;;;;19.49;26.46;103198.84;16123700;19;129705;-48
2023/01/22 09:07:33;;;;;;;5.07;1.40;;;;;;;19.75;26.43;103200.19;16130633;19;131601;-52
2023/01/22 09:12:58;;;;;;;4.72;1.20;;;;;;;20.07;25.89;103199.81;16127787;19;131291;-50
2023/01/22 09:18:20;;;;;;;5.07;1.17;;;;;;;20.33;25.90;103203.88;16125218;19;130273;-56
2023/01/22 09:23:41;;;;;;;7.30;1.20;;;;;;;20.58;25.49;103202.34;16127594;19;131362;-54
2023/01/22 09:29:04;;;;;;;5.28;1.30;;;;;;;20.78;25.08;103193.31;16123966;19;129474;-52
2023/01/22 09:34:26;;;;;;;6.43;1.45;;;;;;;20.97;24.91;103207.50;16123111;19;129934;-47
2023/01/22 09:39:49;;;;;;;1.50;0.95;;;;;;;21.13;24.68;103201.59;16125593;19;130611;-50
2023/01/22 09:45:14;;;;;;;2.55;1.00;;;;;;;21.33;24.93;103206.34;16122355;19;131367;-53
2023/01/22 09:50:36;;;;;;;2.07;1.07;;;;;;;21.43;24.78;103209.59;16121444;19;130979;-53
2023/01/22 09:55:59;;;;;;;5.90;1.30;;;;;;;21.54;24.71;103207.31;16116833;19;129655;-55
2023/01/22 10:01:22;;;;;;;2.22;1.00;;;;;;;21.65;24.70;103210.31;16117733;19;129473;-50
2023/01/22 10:06:45;;;;;;;4.22;1.08;;;;;;;21.73;24.53;103214.84;16123845;19;129296;-55
2023/01/22 10:12:12;;;;;;;8.50;1.10;;;;;;;21.85;24.31;103214.22;16126785;19;135044;-53
2023/01/22 10:17:35;;;;;;;3.95;1.00;;;;;;;21.91;24.59;103216.16;16113852;19;131673;-50
2023/01/22 10:23:07;;;;;;;6.72;1.30;;;;;;;21.95;24.39;103218.31;16118604;19;130932;-47
2023/01/22 10:28:49;;;;;;;3.28;1.08;;;;;;;22.04;24.64;103216.13;16203542;19;130937;-56
2023/01/22 10:34:20;;;;;;;8.60;1.43;;;;;;;22.11;24.44;103208.66;16197354;19;129552;-53
2023/01/22 10:39:44;;;;;;;4.32;1.50;;;;;;;22.15;24.39;103211.03;16195042;19;130492;-49
2023/01/22 10:45:18;;;;;;;3.87;1.60;;;;;;;22.10;23.73;103212.50;16192365;19;130756;-51
2023/01/22 10:50:41;;;;;;;3.53;1.38;;;;;;;22.08;23.97;103206.28;16194357;19;129550;-49
2023/01/22 10:56:06;;;;;;;6.57;1.20;;;;;;;22.08;23.74;103214.66;16192503;19;129493;-50
2023/01/22 11:01:34;;;;;;;7.10;1.35;;;;;;;22.07;24.09;103214.88;16195088;19;130356;-52
2023/01/22 11:07:05;;;;;;;8.07;1.50;;;;;;;22.06;24.09;103204.78;16196692;19;129803;-49
2023/01/22 11:12:41;;;;;;;4.93;1.00;;;;;;;22.05;24.57;103201.13;16193261;19;129739;-50
2023/01/22 11:18:06;;;;;;;6.18;1.35;;;;;;;22.07;24.44;103193.41;16191752;19;130719;-53
2023/01/22 11:23:46;;;;;;;12.93;1.43;;;;;;;22.12;24.63;103195.56;16184430;19;129908;-52
2023/01/22 11:29:29;;;;;;;5.22;1.30;;;;;;;22.16;24.36;103195.97;16193041;19;129792;-53
2023/01/22 11:35:00;;;;;;;6.80;1.15;;;;;;;22.21;24.57;103187.88;16181850;19;129879;-51
2023/01/22 11:40:29;;;;;;;8.25;1.30;;;;;;;22.26;24.82;103179.72;16120711;19;130290;-60
2023/01/22 11:46:12;;;;;;;6.22;1.30;;;;;;;22.30;24.24;103183.78;16122554;19;129801;-65
2023/01/22 11:52:15;;;;;;;6.93;1.35;;;;;;;22.30;24.48;103169.84;16122917;19;130035;-57
2023/01/22 11:57:58;;;;;;;7.28;1.10;;;;;;;22.20;24.84;103170.28;16126453;19;132267;-55
2023/01/22 12:03:38;;;;;;;3.35;0.80;;;;;;;22.00;25.01;103161.91;16123392;19;129848;-49
2023/01/22 12:09:05;;;;;;;4.30;1.10;;;;;;;21.73;25.20;103158.25;16122704;19;129723;-53
2023/01/22 12:14:49;;;;;;;2.92;0.80;;;;;;;21.49;25.08;103153.09;16119619;19;129523;-49
2023/01/22 12:20:53;;;;;;;5.15;1.08;;;;;;;21.22;25.15;103141.88;16120528;19;129686;-54
2023/01/22 12:26:30;;;;;;;2.90;1.00;;;;;;;21.03;25.60;103153.81;16122502;19;130302;-51
2023/01/22 12:32:09;;;;;;;4.50;1.02;;;;;;;20.83;25.55;103148.16;16127236;19;130261;-53
2023/01/22 12:37:44;;;;;;;2.40;1.20;;;;;;;20.69;26.18;103147.19;16125024;19;129522;-48
2023/01/22 12:43:06;;;;;;;4.32;0.98;;;;;;;20.54;26.23;103155.69;16123046;19;129674;-51
2023/01/22 12:48:45;;;;;;;5.80;0.90;;;;;;;20.40;26.56;103155.59;16119779;19;129499;-48
2023/01/22 12:54:27;;;;;;;2.83;0.80;;;;;;;20.31;26.83;103158.78;16123443;19;130863;-51
2023/01/22 12:59:54;;;;;;;9.68;2.20;;;;;;;20.20;26.97;103160.19;16121183;19;129550;-48
2023/01/22 13:05:19;;;;;;;4.53;1.00;;;;;;;20.14;26.84;103156.28;16110572;19;130644;-48
2023/01/22 13:10:55;;;;;;;9.63;1.17;;;;;;;20.17;27.31;103160.56;16109075;19;131361;-50
2023/01/22 13:16:35;;;;;;;1.92;0.88;;;;;;;20.26;27.17;103159.34;16113517;19;130660;-51
2023/01/22 13:21:59;;;;;;;8.25;1.25;;;;;;;20.37;26.81;103157.94;16118083;19;131191;-50
2023/01/22 13:27:31;;;;;;;2.35;1.00;;;;;;;20.52;26.63;103147.56;16119520;19;131015;-47
2023/01/22 13:33:14;;;;;;;1.83;0.70;;;;;;;20.68;26.52;103157.47;16120707;19;129807;-47
2023/01/22 13:38:36;;;;;;;3.75;0.98;;;;;;;20.70;26.32;103160.91;16116034;19;129764;-53
2023/01/22 13:43:58;;;;;;;3.70;1.00;;;;;;;20.73;26.24;103159.63;16114446;19;129444;-50
2023/01/22 13:49:24;;;;;;;2.30;0.80;;;;;;;20.78;26.01;103167.41;16113019;19;130737;-51
2023/01/22 13:55:14;;;;;;;3.88;0.73;;;;;;;20.83;25.58;103165.69;16115847;19;129510;-51
2023/01/22 14:00:36;;;;;;;4.47;1.10;;;;;;;20.83;26.11;103171.28;16110809;19;130964;-56
2023/01/22 14:06:13;;;;;;;3.30;1.00;;;;;;;20.83;25.62;103176.84;16114750;19;130215;-55
2023/01/22 14:11:39;;;;;;;3.10;1.05;;;;;;;20.81;25.67;103176.19;16116126;19;129759;-55
2023/01/22 14:17:01;;;;;;;3.90;0.63;;;;;;;20.75;25.66;103168.63;16117606;19;130826;-46
2023/01/22 14:22:23;;;;;;;3.08;0.73;;;;;;;20.70;26.02;103183.16;16115688;19;129759;-53
2023/01/22 14:27:48;;;;;;;4.50;0.80;;;;;;;20.71;26.07;103178.44;16116964;19;129718;-53
2023/01/22 14:33:19;;;;;;;;;;;;;;;20.68;26.57;103184.41;16096065;19;129853;-52
2023/01/22 14:38:44;;;;;;;2.33;0.90;;;;;;;20.65;26.46;103176.50;16116754;19;129874;-48
2023/01/22 14:44:07;;;;;;;1.67;0.57;;;;;;;20.59;26.20;103192.94;16117462;19;131057;-49
2023/01/22 14:49:29;;;;;;;1.95;0.80;;;;;;;20.49;26.59;103206.34;16114636;19;130293;-47
2023/01/22 14:54:51;;;;;;;1.27;0.80;;;;;;;20.39;26.70;103203.09;16116494;19;130941;-51
2023/01/22 15:00:15;;;;;;;1.10;0.68;;;;;;;20.30;26.80;103202.38;16114898;19;130745;-52
2023/01/22 15:05:37;;;;;;;2.60;0.87;;;;;;;20.19;27.12;103214.03;16113943;19;129393;-49
2023/01/22 15:11:00;;;;;;;2.95;0.80;;;;;;;20.07;26.92;103208.16;16119453;19;130809;-52
2023/01/22 15:16:21;;;;;;;1.40;0.82;;;;;;;19.98;26.69;103213.84;16129573;19;132288;-48
2023/01/22 15:21:43;;;;;;;3.60;1.23;;;;;;;19.89;26.93;103214.16;16131322;19;129704;-50
2023/01/22 15:27:06;;;;;;;6.00;0.88;;;;;;;19.78;27.09;103212.78;16129739;19;129728;-56
2023/01/22 15:32:28;;;;;;;1.60;0.73;;;;;;;19.70;27.05;103216.56;16129618;19;130081;-54
2023/01/22 15:37:50;;;;;;;3.10;1.23;;;;;;;19.67;27.42;103209.50;16127410;19;129365;-48
2023/01/22 15:43:12;;;;;;;1.50;0.88;;;;;;;19.85;26.85;103210.94;16129456;19;130128;-49
2023/01/22 15:48:33;;;;;;;3.03;0.52;;;;;;;20.21;26.62;103212.78;16129676;19;130909;-54
2023/01/22 15:54:01;;;;;;;3.13;1.00;;;;;;;20.62;26.52;103204.72;16125042;19;129729;-48
2023/01/22 15:59:22;;;;;;;2.10;0.82;;;;;;;21.00;25.84;103204.31;16126441;19;129660;-50
2023/01/22 16:04:44;;;;;;;4.22;0.80;;;;;;;21.33;26.11;103200.78;16126381;19;131945;-53
2023/01/22 16:10:06;;;;;;;1.55;0.77;;;;;;;21.54;26.10;103205.38;16113622;19;129480;-48
2023/01/22 16:15:28;;;;;;;3.45;1.08;;;;;;;21.74;25.77;103202.63;16127126;19;130730;-52
2023/01/22 16:20:50;;;;;;;5.53;0.70;;;;;;;21.92;26.33;103203.91;16123615;19;130002;-48
2023/01/22 16:26:17;;;;;;;1.02;0.50;;;;;;;22.00;26.29;103208.44;16124163;19;129368;-55
2023/01/22 16:31:39;;;;;;;2.03;0.80;;;;;;;22.03;26.18;103216.38;16125501;19;130940;-53
2023/01/22 16:37:01;;;;;;;1.70;0.75;;;;;;;22.01;26.41;103215.72;16118805;19;130168;-49
2023/01/22 16:42:26;;;;;;;6.67;0.83;;;;;;;21.91;26.34;103211.44;16121258;19;129883;-50
2023/01/22 16:47:48;;;;;;;8.45;0.95;;;;;;;21.83;26.12;103211.66;16122301;19;131520;-51
2023/01/22 16:53:10;;;;;;;7.28;1.27;;;;;;;21.75;26.27;103215.50;16122219;19;130582;-49
2023/01/22 16:58:31;;;;;;;4.57;0.80;;;;;;;21.68;26.93;103217.41;16125172;19;130497;-50
2023/01/22 17:03:53;;;;;;;5.85;0.90;;;;;;;21.63;26.68;103231.13;16120706;19;129749;-51
2023/01/22 17:09:23;;;;;;;4.95;1.10;;;;;;;21.56;27.55;103230.22;16122904;19;129100;-51
2023/01/22 17:14:47;;;;;;;7.65;1.00;;;;;;;21.48;27.70;103229.34;16093002;19;131319;-55
2023/01/22 17:20:09;;;;;;;2.90;0.70;;;;;;;21.43;27.56;103243.00;16096631;19;129985;-46
2023/01/22 17:25:31;;;;;;;5.30;1.00;;;;;;;21.42;27.94;103246.88;16112811;19;130649;-49
2023/01/22 17:30:53;;;;;;;2.92;0.95;;;;;;;21.41;28.13;103245.19;16113710;19;129534;-55
2023/01/22 17:36:21;;;;;;;1.55;0.80;;;;;;;21.40;27.75;103243.47;16121487;19;129949;-56
2023/01/22 17:41:43;;;;;;;4.18;1.08;;;;;;;21.36;28.05;103256.91;16121688;19;131016;-47
2023/01/22 17:47:05;;;;;;;2.97;0.80;;;;;;;21.28;28.27;103253.47;16121988;19;129170;-51
2023/01/22 17:52:27;;;;;;;3.90;0.70;;;;;;;21.15;28.08;103252.34;16116343;19;135258;-49
2023/01/22 17:57:53;;;;;;;0.88;0.60;;;;;;;21.03;28.43;103265.13;16118336;19;131209;-48
2023/01/22 18:03:15;;;;;;;4.28;0.88;;;;;;;20.88;28.28;103265.25;16121370;19;131091;-49
2023/01/22 18:08:38;;;;;;;6.75;1.20;;;;;;;20.74;28.41;103259.56;16110105;19;130677;-47
2023/01/22 18:14:04;;;;;;;2.35;1.05;;;;;;;20.60;28.63;103260.56;16110577;19;129734;-48
2023/01/22 18:19:26;;;;;;;1.92;0.88;;;;;;;20.46;28.45;103256.81;16114218;19;129685;-53
2023/01/22 18:24:48;;;;;;;3.15;1.10;;;;;;;20.36;28.62;103265.50;16108999;19;131341;-50
2023/01/22 18:30:10;;;;;;;3.05;1.00;;;;;;;20.27;28.65;103267.56;16108416;19;130045;-53
2023/01/22 18:35:33;;;;;;;3.20;1.17;;;;;;;20.16;28.92;103276.47;16116187;19;129479;-52
2023/01/22 18:40:55;;;;;;;1.95;0.95;;;;;;;20.06;28.79;103270.38;16117655;19;129607;-48
2023/01/22 18:46:18;;;;;;;1.85;0.90;;;;;;;19.95;28.72;103275.34;16119938;19;129807;-48
2023/01/22 18:51:40;;;;;;;2.55;0.90;;;;;;;19.95;28.57;103280.91;16129913;19;129231;-53
2023/01/22 18:57:02;;;;;;;7.32;0.93;;;;;;;20.05;28.60;103282.56;16130123;19;129580;-48
2023/01/22 19:02:24;;;;;;;3.53;1.13;;;;;;;20.28;28.23;103277.63;16131080;19;131025;-49
2023/01/22 19:07:46;;;;;;;2.55;0.90;;;;;;;20.68;28.18;103284.53;16127651;19;129601;-49
2023/01/22 19:13:08;;;;;;;5.05;0.90;;;;;;;21.13;27.91;103289.78;16116071;19;131662;-52
2023/01/22 19:18:30;;;;;;;6.95;0.77;;;;;;;21.43;27.89;103284.78;16117745;19;129946;-52
2023/01/22 19:23:57;;;;;;;5.25;1.08;;;;;;;21.56;27.57;103285.94;16122082;19;130225;-48
2023/01/22 19:29:22;;;;;;;4.00;1.10;;;;;;;21.65;28.08;103279.97;16122310;19;131971;-52
2023/01/22 19:34:44;;;;;;;4.83;0.90;;;;;;;21.77;28.08;103287.72;16124423;19;130014;-55
2023/01/22 19:40:07;;;;;;;5.22;0.68;;;;;;;21.81;27.86;103292.66;16121569;19;131455;-51
2023/01/22 19:45:29;;;;;;;1.20;0.90;;;;;;;21.80;28.21;103287.31;16126319;19;130409;-53
2023/01/22 19:50:59;;;;;;;1.77;0.82;;;;;;;21.74;28.04;103291.78;16126988;19;131066;-49
2023/01/22 19:56:25;;;;;;;4.43;1.00;;;;;;;21.63;28.28;103298.81;16125658;19;134024;-51
2023/01/22 20:01:48;;;;;;;4.88;1.00;;;;;;;21.49;28.21;103292.34;16128444;19;129892;-55
2023/01/22 20:07:10;;;;;;;4.90;1.10;;;;;;;21.37;28.95;103293.97;16124416;19;130005;-57
2023/01/22 20:12:31;;;;;;;7.20;1.30;;;;;;;21.22;28.93;103308.06;16124392;19;129637;-54
2023/01/22 20:17:53;;;;;;;3.80;1.02;;;;;;;21.09;28.75;103303.25;16126418;19;129323;-56
2023/01/22 20:23:15;;;;;;;4.60;1.10;;;;;;;20.94;28.88;103300.63;16123788;19;129877;-48
2023/01/22 20:28:38;;;;;;;2.97;1.10;;;;;;;20.82;29.32;103303.09;16124889;19;130179;-52
2023/01/22 20:34:01;;;;;;;1.45;0.90;;;;;;;20.71;29.81;103317.53;16124537;19;129869;-55
2023/01/22 20:39:23;;;;;;;1.95;1.10;;;;;;;20.59;29.44;103320.88;16123574;19;129762;-52
2023/01/22 20:44:45;;;;;;;4.00;1.02;;;;;;;20.50;29.94;103319.31;16117883;19;131139;-56
2023/01/22 20:50:08;;;;;;;2.25;0.95;;;;;;;20.43;30.05;103324.81;16127554;19;131352;-56
2023/01/22 20:55:29;;;;;;;3.97;1.00;;;;;;;20.45;30.37;103335.72;16125255;19;131888;-48
2023/01/22 21:00:51;;;;;;;2.50;1.10;;;;;;;20.45;30.17;103325.47;16124025;19;129175;-60
2023/01/22 21:06:15;;;;;;;2.45;0.93;;;;;;;20.50;29.95;103324.88;16123756;19;131404;-60
2023/01/22 21:11:39;;;;;;;2.60;1.00;;;;;;;20.55;30.48;103319.56;16117389;19;129850;-57
2023/01/22 21:17:00;;;;;;;2.47;1.02;;;;;;;20.60;30.16;103330.94;16112880;19;130158;-59
2023/01/22 21:22:22;;;;;;;2.95;1.02;;;;;;;20.64;30.37;103333.31;16121735;19;134364;-49
2023/01/22 21:27:44;;;;;;;4.03;1.30;;;;;;;20.65;30.25;103341.44;16124801;19;129647;-56
2023/01/22 21:33:06;;;;;;;3.33;1.10;;;;;;;20.62;30.52;103335.44;16124626;19;130477;-62
2023/01/22 21:38:28;;;;;;;3.38;0.90;;;;;;;20.59;30.67;103326.44;16111904;19;129559;-58
2023/01/22 21:49:31;;;;;;;1.35;0.80;;;;;;;20.48;30.53;103329.75;16115993;19;129980;-62
2023/01/22 21:54:53;;;;;;;2.72;1.00;;;;;;;20.37;30.18;103336.72;16115818;19;130087;-59
2023/01/22 22:00:17;;;;;;;1.58;0.93;;;;;;;20.27;30.01;103345.41;16120657;19;129824;-63
2023/01/22 22:05:41;;;;;;;3.35;1.13;;;;;;;20.16;30.08;103343.16;16118622;19;129684;-59
2023/01/22 22:11:03;;;;;;;4.03;1.20;;;;;;;20.06;30.40;103345.41;16119721;19;130085;-63
2023/01/22 22:16:25;;;;;;;3.45;1.48;;;;;;;19.95;30.21;103344.81;16118724;19;129481;-62
2023/01/22 22:21:49;;;;;;;2.28;1.10;;;;;;;19.85;30.12;103344.25;16121420;19;129706;-55
2023/01/22 22:27:12;;;;;;;2.80;1.30;;;;;;;19.77;30.40;103352.72;16121774;19;130879;-53
2023/01/22 22:32:33;;;;;;;2.55;1.58;;;;;;;19.67;30.04;103350.25;16113458;19;129736;-55
2023/01/22 22:37:55;;;;;;;2.45;1.45;;;;;;;19.60;29.92;103354.88;16118349;19;130338;-58
2023/01/22 22:43:17;;;;;;;3.13;1.70;;;;;;;19.50;29.94;103347.72;16115421;19;129554;-51
2023/01/22 22:48:39;;;;;;;2.30;1.33;;;;;;;19.45;30.43;103363.19;16115910;19;130758;-52
2023/01/22 22:54:05;;;;;;;3.63;1.35;;;;;;;19.40;29.94;103365.69;16116033;19;130325;-51
2023/01/22 22:59:26;;;;;;;2.72;1.63;;;;;;;19.33;30.46;103365.59;16115385;19;130575;-56
2023/01/22 23:04:48;;;;;;;3.20;1.50;;;;;;;19.28;30.18;103352.31;16116658;19;129633;-51
2023/01/22 23:10:27;;;;;;;4.82;1.88;;;;;;;19.22;30.26;103364.16;16114122;19;130803;-50
2023/01/22 23:15:49;;;;;;;3.67;1.80;;;;;;;19.17;30.01;103358.31;16111753;19;129703;-50
2023/01/22 23:21:16;;;;;;;2.60;1.40;;;;;;;19.12;29.81;103358.00;16112344;19;129383;-50
2023/01/22 23:26:39;;;;;;;4.40;1.80;;;;;;;19.06;29.84;103348.53;16111445;19;130207;-51
2023/01/22 23:32:01;;;;;;;3.97;1.80;;;;;;;19.01;30.21;103360.19;16111743;19;131733;-53
2023/01/22 23:37:23;;;;;;;2.28;1.67;;;;;;;18.97;29.98;103358.00;16128341;19;130132;-48
2023/01/22 23:42:48;;;;;;;2.25;1.50;;;;;;;18.94;29.94;103361.13;16128230;19;130323;-50
2023/01/22 23:48:10;;;;;;;;;;;;;;;18.86;29.98;103353.75;16128607;19;130601;-48
2023/01/22 23:53:38;;;;;;;4.38;1.80;;;;;;;18.84;29.91;103356.72;16127235;19;131781;-53
2023/01/22 23:59:00;;;;;;;4.65;1.92;;;;;;;18.79;29.61;103369.44;16127388;19;129278;-53
